sensor_id;sensor_type;location;lat;lon;timestamp;pressure;altitude;pressure_sealevel;temperature;humidity
1736;BME280;865;53.672;10.250;2023-11-19T00:00:01;99991.66;;;3.72;100.00
1736;BME280;865;53.672;10.250;2023-11-19T00:02:27;99972.72;;;3.72;100.00
1736;BME280;865;53.672;10.250;2023-11-19T00:04:54;99968.44;;;3.72;100.00
1736;BME280;865;53.672;10.250;2023-11-19T00:07:20;99972.72;;;3.73;100.00
1736;BME280;865;53.672;10.250;2023-11-19T00:09:49;99958.94;;;3.79;100.00
1736;BME280;865;53.672;10.250;2023-11-19T00:12:16;99958.91;;;3.80;100.00
1736;BME280;865;53.672;10.250;2023-11-19T00:14:42;99951.19;;;3.82;100.00
1736;BME280;865;53.672;10.250;2023-11-19T00:17:09;99945.97;;;3.86;100.00
1736;BME280;865;53.672;10.250;2023-11-19T00:19:35;99937.38;;;3.86;100.00
1736;BME280;865;53.672;10.250;2023-11-19T00:22:02;99927.91;;;3.91;100.00
1736;BME280;865;53.672;10.250;2023-11-19T00:24:30;99927.09;;;3.87;100.00
1736;BME280;865;53.672;10.250;2023-11-19T00:26:57;99913.31;;;3.88;100.00
1736;BME280;865;53.672;10.250;2023-11-19T00:29:23;99898.69;;;3.87;100.00
1736;BME280;865;53.672;10.250;2023-11-19T00:31:50;99885.78;;;3.86;100.00
1736;BME280;865;53.672;10.250;2023-11-19T00:34:16;99874.66;;;3.79;100.00
1736;BME280;865;53.672;10.250;2023-11-19T00:36:47;99866.91;;;3.87;100.00
1736;BME280;865;53.672;10.250;2023-11-19T00:39:15;99857.44;;;3.84;100.00
1736;BME280;865;53.672;10.250;2023-11-19T00:41:42;99841.97;;;3.84;100.00
1736;BME280;865;53.672;10.250;2023-11-19T00:44:08;99825.63;;;3.85;100.00
1736;BME280;865;53.672;10.250;2023-11-19T00:46:35;99811.84;;;3.88;100.00
1736;BME280;865;53.672;10.250;2023-11-19T00:49:02;99791.19;;;3.93;100.00
1736;BME280;865;53.672;10.250;2023-11-19T00:51:29;99792.91;;;3.89;100.00
1736;BME280;865;53.672;10.250;2023-11-19T00:53:58;99782.59;;;3.89;100.00
1736;BME280;865;53.672;10.250;2023-11-19T00:56:25;99769.72;;;3.87;100.00
1736;BME280;865;53.672;10.250;2023-11-19T00:58:51;99767.97;;;3.93;100.00
1736;BME280;865;53.672;10.250;2023-11-19T01:01:18;99764.50;;;3.92;100.00
1736;BME280;865;53.672;10.250;2023-11-19T01:03:45;99750.69;;;3.99;100.00
1736;BME280;865;53.672;10.250;2023-11-19T01:06:12;99749.88;;;3.96;100.00
1736;BME280;865;53.672;10.250;2023-11-19T01:08:38;99739.53;;;3.97;100.00
1736;BME280;865;53.672;10.250;2023-11-19T01:11:04;99734.34;;;4.00;100.00
1736;BME280;865;53.672;10.250;2023-11-19T01:13:31;99736.03;;;4.01;100.00
1736;BME280;865;53.672;10.250;2023-11-19T01:15:58;99711.13;;;4.00;100.00
1736;BME280;865;53.672;10.250;2023-11-19T01:18:24;99707.63;;;4.06;100.00
1736;BME280;865;53.672;10.250;2023-11-19T01:20:51;99692.13;;;4.06;100.00
1736;BME280;865;53.672;10.250;2023-11-19T01:23:17;99689.56;;;4.04;100.00
1736;BME280;865;53.672;10.250;2023-11-19T01:25:44;99688.72;;;4.05;100.00
1736;BME280;865;53.672;10.250;2023-11-19T01:28:10;99667.19;;;4.06;100.00
1736;BME280;865;53.672;10.250;2023-11-19T01:30:36;99663.72;;;4.07;100.00
1736;BME280;865;53.672;10.250;2023-11-19T01:33:03;99663.75;;;4.04;100.00
1736;BME280;865;53.672;10.250;2023-11-19T01:35:30;99637.06;;;4.07;100.00
1736;BME280;865;53.672;10.250;2023-11-19T01:37:56;99637.91;;;4.09;100.00
1736;BME280;865;53.672;10.250;2023-11-19T01:40:22;99628.47;;;4.08;100.00
1736;BME280;865;53.672;10.250;2023-11-19T01:42:49;99617.22;;;4.14;100.00
1736;BME280;865;53.672;10.250;2023-11-19T01:45:22;99621.56;;;4.11;100.00
1736;BME280;865;53.672;10.250;2023-11-19T01:47:53;99613.88;;;4.05;100.00
1736;BME280;865;53.672;10.250;2023-11-19T01:50:23;99604.41;;;4.06;100.00
1736;BME280;865;53.672;10.250;2023-11-19T01:52:54;99597.50;;;4.06;100.00
1736;BME280;865;53.672;10.250;2023-11-19T01:55:21;99586.31;;;4.10;100.00
1736;BME280;865;53.672;10.250;2023-11-19T01:57:49;99576.00;;;4.09;100.00
1736;BME280;865;53.672;10.250;2023-11-19T02:00:16;99574.28;;;4.08;100.00
1736;BME280;865;53.672;10.250;2023-11-19T02:02:46;99580.34;;;4.05;100.00
1736;BME280;865;53.672;10.250;2023-11-19T02:05:13;99564.78;;;4.11;100.00
1736;BME280;865;53.672;10.250;2023-11-19T02:07:40;99563.97;;;4.06;100.00
1736;BME280;865;53.672;10.250;2023-11-19T02:10:06;99557.88;;;4.12;100.00
1736;BME280;865;53.672;10.250;2023-11-19T02:12:34;99557.03;;;4.11;100.00
1736;BME280;865;53.672;10.250;2023-11-19T02:15:02;99552.72;;;4.12;100.00
1736;BME280;865;53.672;10.250;2023-11-19T02:17:30;99552.81;;;4.04;100.00
1736;BME280;865;53.672;10.250;2023-11-19T02:20:04;99532.13;;;4.07;100.00
1736;BME280;865;53.672;10.250;2023-11-19T02:22:35;99515.78;;;4.07;100.00
1736;BME280;865;53.672;10.250;2023-11-19T02:25:04;99507.16;;;4.09;100.00
1736;BME280;865;53.672;10.250;2023-11-19T02:30:15;99496.84;;;4.09;100.00
1736;BME280;865;53.672;10.250;2023-11-19T02:32:42;99486.56;;;4.08;100.00
1736;BME280;865;53.672;10.250;2023-11-19T02:35:10;99475.34;;;4.10;100.00
1736;BME280;865;53.672;10.250;2023-11-19T02:37:38;99473.63;;;4.11;100.00
1736;BME280;865;53.672;10.250;2023-11-19T02:40:06;99471.00;;;4.13;100.00
1736;BME280;865;53.672;10.250;2023-11-19T02:42:36;99462.41;;;4.14;100.00
1736;BME280;865;53.672;10.250;2023-11-19T02:45:02;99463.28;;;4.11;100.00
1736;BME280;865;53.672;10.250;2023-11-19T02:47:33;99453.78;;;4.13;100.00
1736;BME280;865;53.672;10.250;2023-11-19T02:50:00;99438.28;;;4.13;100.00
1736;BME280;865;53.672;10.250;2023-11-19T02:52:27;99433.13;;;4.15;100.00
1736;BME280;865;53.672;10.250;2023-11-19T02:54:53;99426.22;;;4.17;100.00
1736;BME280;865;53.672;10.250;2023-11-19T02:57:20;99414.97;;;4.21;100.00
1736;BME280;865;53.672;10.250;2023-11-19T02:59:48;99408.22;;;4.14;100.00
1736;BME280;865;53.672;10.250;2023-11-19T03:02:15;99397.00;;;4.15;100.00
1736;BME280;865;53.672;10.250;2023-11-19T03:04:44;99406.44;;;4.16;100.00
1736;BME280;865;53.672;10.250;2023-11-19T03:07:12;99392.69;;;4.17;100.00
1736;BME280;865;53.672;10.250;2023-11-19T03:09:39;99375.47;;;4.17;100.00
1736;BME280;865;53.672;10.250;2023-11-19T03:12:07;99375.41;;;4.20;100.00
1736;BME280;865;53.672;10.250;2023-11-19T03:14:33;99351.34;;;4.18;100.00
1736;BME280;865;53.672;10.250;2023-11-19T03:17:01;99350.44;;;4.21;100.00
1736;BME280;865;53.672;10.250;2023-11-19T03:19:27;99340.13;;;4.21;100.00
1736;BME280;865;53.672;10.250;2023-11-19T03:21:55;99337.47;;;4.25;100.00
1736;BME280;865;53.672;10.250;2023-11-19T03:24:22;99330.53;;;4.29;100.00
1736;BME280;865;53.672;10.250;2023-11-19T03:26:49;99328.69;;;4.34;100.00
1736;BME280;865;53.672;10.250;2023-11-19T03:29:16;99320.91;;;4.37;100.00
1736;BME280;865;53.672;10.250;2023-11-19T03:31:43;99314.00;;;4.39;100.00
1736;BME280;865;53.672;10.250;2023-11-19T03:34:10;99299.34;;;4.41;100.00
1736;BME280;865;53.672;10.250;2023-11-19T03:36:37;99288.13;;;4.42;100.00
1736;BME280;865;53.672;10.250;2023-11-19T03:39:03;99282.91;;;4.45;100.00
1736;BME280;865;53.672;10.250;2023-11-19T03:41:29;99272.50;;;4.48;100.00
1736;BME280;865;53.672;10.250;2023-11-19T03:44:07;99275.13;;;4.47;100.00
1736;BME280;865;53.672;10.250;2023-11-19T03:46:33;99279.41;;;4.48;100.00
1736;BME280;865;53.672;10.250;2023-11-19T03:49:01;99269.94;;;4.48;100.00
1736;BME280;865;53.672;10.250;2023-11-19T03:51:28;99275.81;;;4.55;100.00
1736;BME280;865;53.672;10.250;2023-11-19T03:53:54;99258.63;;;4.55;100.00
1736;BME280;865;53.672;10.250;2023-11-19T03:56:21;99270.63;;;4.58;100.00
1736;BME280;865;53.672;10.250;2023-11-19T03:58:47;99265.34;;;4.63;100.00
1736;BME280;865;53.672;10.250;2023-11-19T04:01:14;99262.75;;;4.64;100.00
1736;BME280;865;53.672;10.250;2023-11-19T04:03:41;99250.66;;;4.66;100.00
1736;BME280;865;53.672;10.250;2023-11-19T04:06:11;99247.09;;;4.72;100.00
1736;BME280;865;53.672;10.250;2023-11-19T04:08:37;99251.38;;;4.73;100.00
1736;BME280;865;53.672;10.250;2023-11-19T04:11:04;99246.16;;;4.76;100.00
1736;BME280;865;53.672;10.250;2023-11-19T04:13:31;99244.44;;;4.75;100.00
1736;BME280;865;53.672;10.250;2023-11-19T04:15:59;99229.72;;;4.78;100.00
1736;BME280;865;53.672;10.250;2023-11-19T04:18:25;99221.97;;;4.80;100.00
1736;BME280;865;53.672;10.250;2023-11-19T04:20:52;99215.81;;;4.86;100.00
1736;BME280;865;53.672;10.250;2023-11-19T04:23:18;99208.91;;;4.86;100.00
1736;BME280;865;53.672;10.250;2023-11-19T04:25:44;99209.81;;;4.85;100.00
1736;BME280;865;53.672;10.250;2023-11-19T04:28:11;99197.75;;;4.86;100.00
1736;BME280;865;53.672;10.250;2023-11-19T04:30:37;99205.44;;;4.89;100.00
1736;BME280;865;53.672;10.250;2023-11-19T04:33:04;99188.94;;;4.94;100.00
1736;BME280;865;53.672;10.250;2023-11-19T04:35:32;99183.78;;;4.94;100.00
1736;BME280;865;53.672;10.250;2023-11-19T04:37:58;99173.38;;;4.96;100.00
1736;BME280;865;53.672;10.250;2023-11-19T04:40:25;99172.38;;;5.03;100.00
1736;BME280;865;53.672;10.250;2023-11-19T04:42:52;99167.25;;;5.01;100.00
1736;BME280;865;53.672;10.250;2023-11-19T04:45:18;99160.41;;;4.99;100.00
1736;BME280;865;53.672;10.250;2023-11-19T04:47:45;99174.91;;;5.05;100.00
1736;BME280;865;53.672;10.250;2023-11-19T04:50:11;99165.41;;;5.07;100.00
1736;BME280;865;53.672;10.250;2023-11-19T04:52:38;99162.75;;;5.10;100.00
1736;BME280;865;53.672;10.250;2023-11-19T04:55:07;99150.69;;;5.10;100.00
1736;BME280;865;53.672;10.250;2023-11-19T04:57:33;99158.34;;;5.15;100.00
1736;BME280;865;53.672;10.250;2023-11-19T05:00:00;99162.59;;;5.16;100.00
1736;BME280;865;53.672;10.250;2023-11-19T05:02:26;99157.38;;;5.17;100.00
1736;BME280;865;53.672;10.250;2023-11-19T05:04:53;99129.84;;;5.18;100.00
1736;BME280;865;53.672;10.250;2023-11-19T05:07:19;99129.63;;;5.27;100.00
1736;BME280;865;53.672;10.250;2023-11-19T05:09:46;99142.38;;;5.33;100.00
1736;BME280;865;53.672;10.250;2023-11-19T05:12:13;99136.25;;;5.37;100.00
1736;BME280;865;53.672;10.250;2023-11-19T05:14:39;99114.66;;;5.38;100.00
1736;BME280;865;53.672;10.250;2023-11-19T05:17:06;99104.06;;;5.49;100.00
1736;BME280;865;53.672;10.250;2023-11-19T05:19:34;99109.16;;;5.52;100.00
1736;BME280;865;53.672;10.250;2023-11-19T05:22:00;99102.91;;;5.61;100.00
1736;BME280;865;53.672;10.250;2023-11-19T05:24:27;99096.81;;;5.62;100.00
1736;BME280;865;53.672;10.250;2023-11-19T05:26:53;99086.44;;;5.63;100.00
1736;BME280;865;53.672;10.250;2023-11-19T05:29:20;99082.88;;;5.67;100.00
1736;BME280;865;53.672;10.250;2023-11-19T05:31:46;99081.03;;;5.72;100.00
1736;BME280;865;53.672;10.250;2023-11-19T05:34:14;99072.25;;;5.78;100.00
1736;BME280;865;53.672;10.250;2023-11-19T05:36:41;99062.72;;;5.80;100.00
1736;BME280;865;53.672;10.250;2023-11-19T05:39:07;99056.47;;;5.87;100.00
1736;BME280;865;53.672;10.250;2023-11-19T05:41:34;99044.16;;;5.97;100.00
1736;BME280;865;53.672;10.250;2023-11-19T05:44:01;99039.78;;;5.99;100.00
1736;BME280;865;53.672;10.250;2023-11-19T05:46:28;99041.44;;;6.02;100.00
1736;BME280;865;53.672;10.250;2023-11-19T05:48:54;99035.28;;;6.06;100.00
1736;BME280;865;53.672;10.250;2023-11-19T05:51:21;99036.72;;;6.16;100.00
1736;BME280;865;53.672;10.250;2023-11-19T05:53:50;99033.88;;;6.25;100.00
1736;BME280;865;53.672;10.250;2023-11-19T05:56:17;99028.53;;;6.30;100.00
1736;BME280;865;53.672;10.250;2023-11-19T05:58:48;99020.63;;;6.34;100.00
1736;BME280;865;53.672;10.250;2023-11-19T06:01:15;99020.19;;;6.48;100.00
1736;BME280;865;53.672;10.250;2023-11-19T06:03:43;99016.38;;;6.60;100.00
1736;BME280;865;53.672;10.250;2023-11-19T06:06:09;99012.75;;;6.66;100.00
1736;BME280;865;53.672;10.250;2023-11-19T06:08:37;99013.44;;;6.72;100.00
1736;BME280;865;53.672;10.250;2023-11-19T06:11:04;99008.28;;;6.71;100.00
1736;BME280;865;53.672;10.250;2023-11-19T06:13:30;99004.59;;;6.78;100.00
1736;BME280;865;53.672;10.250;2023-11-19T06:15:57;99011.00;;;6.93;100.00
1736;BME280;865;53.672;10.250;2023-11-19T06:18:25;99002.28;;;6.95;100.00
1736;BME280;865;53.672;10.250;2023-11-19T06:20:52;99005.72;;;6.96;100.00
1736;BME280;865;53.672;10.250;2023-11-19T06:23:18;98994.31;;;7.01;100.00
1736;BME280;865;53.672;10.250;2023-11-19T06:25:45;98994.00;;;7.11;100.00
1736;BME280;865;53.672;10.250;2023-11-19T06:28:12;98990.13;;;7.22;100.00
1736;BME280;865;53.672;10.250;2023-11-19T06:30:39;98999.41;;;7.29;100.00
1736;BME280;865;53.672;10.250;2023-11-19T06:33:08;98997.31;;;7.41;100.00
1736;BME280;865;53.672;10.250;2023-11-19T06:35:34;98997.84;;;7.49;100.00
1736;BME280;865;53.672;10.250;2023-11-19T06:38:04;98988.06;;;7.57;100.00
1736;BME280;865;53.672;10.250;2023-11-19T06:40:34;98989.53;;;7.64;100.00
1736;BME280;865;53.672;10.250;2023-11-19T06:43:04;98994.69;;;7.66;100.00
1736;BME280;865;53.672;10.250;2023-11-19T06:45:31;98991.34;;;7.62;100.00
1736;BME280;865;53.672;10.250;2023-11-19T06:47:57;98994.59;;;7.67;100.00
1736;BME280;865;53.672;10.250;2023-11-19T06:50:24;98986.44;;;7.78;100.00
1736;BME280;865;53.672;10.250;2023-11-19T06:52:51;98989.22;;;7.73;100.00
1736;BME280;865;53.672;10.250;2023-11-19T06:55:17;98988.09;;;7.81;100.00
1736;BME280;865;53.672;10.250;2023-11-19T06:57:44;98984.47;;;7.85;100.00
1736;BME280;865;53.672;10.250;2023-11-19T07:00:11;98980.78;;;7.90;100.00
1736;BME280;865;53.672;10.250;2023-11-19T07:02:38;98974.19;;;8.05;100.00
1736;BME280;865;53.672;10.250;2023-11-19T07:05:06;98974.19;;;8.05;100.00
1736;BME280;865;53.672;10.250;2023-11-19T07:07:34;98968.41;;;8.20;100.00
1736;BME280;865;53.672;10.250;2023-11-19T07:10:02;98966.47;;;8.26;100.00
1736;BME280;865;53.672;10.250;2023-11-19T07:12:30;98970.47;;;8.34;100.00
1736;BME280;865;53.672;10.250;2023-11-19T07:14:57;98968.59;;;8.38;100.00
1736;BME280;865;53.672;10.250;2023-11-19T07:17:24;98976.00;;;8.49;100.00
1736;BME280;865;53.672;10.250;2023-11-19T07:19:50;98970.72;;;8.50;100.00
1736;BME280;865;53.672;10.250;2023-11-19T07:22:17;98976.47;;;8.58;100.00
1736;BME280;865;53.672;10.250;2023-11-19T07:24:44;98965.13;;;8.61;100.00
1736;BME280;865;53.672;10.250;2023-11-19T07:27:10;98963.09;;;8.67;100.00
1736;BME280;865;53.672;10.250;2023-11-19T07:29:37;98963.50;;;8.79;100.00
1736;BME280;865;53.672;10.250;2023-11-19T07:32:05;98955.47;;;8.85;100.00
1736;BME280;865;53.672;10.250;2023-11-19T07:34:31;98953.28;;;9.17;100.00
1736;BME280;865;53.672;10.250;2023-11-19T07:36:58;98942.34;;;9.29;100.00
1736;BME280;865;53.672;10.250;2023-11-19T07:39:29;98950.97;;;9.29;100.00
1736;BME280;865;53.672;10.250;2023-11-19T07:41:56;98948.44;;;9.28;100.00
1736;BME280;865;53.672;10.250;2023-11-19T07:44:22;98942.34;;;9.29;100.00
1736;BME280;865;53.672;10.250;2023-11-19T07:46:49;98948.28;;;9.31;100.00
1736;BME280;865;53.672;10.250;2023-11-19T07:49:16;98943.97;;;9.31;100.00
1736;BME280;865;53.672;10.250;2023-11-19T07:51:42;98943.00;;;9.34;100.00
1736;BME280;865;53.672;10.250;2023-11-19T07:54:09;98950.44;;;9.42;100.00
1736;BME280;865;53.672;10.250;2023-11-19T07:56:36;98945.38;;;9.39;100.00
1736;BME280;865;53.672;10.250;2023-11-19T07:59:03;98949.97;;;9.52;100.00
1736;BME280;865;53.672;10.250;2023-11-19T08:01:30;98968.06;;;9.55;100.00
1736;BME280;865;53.672;10.250;2023-11-19T08:03:56;98972.22;;;9.59;100.00
1736;BME280;865;53.672;10.250;2023-11-19T08:06:25;98973.88;;;9.61;100.00
1736;BME280;865;53.672;10.250;2023-11-19T08:08:52;98980.72;;;9.63;100.00
1736;BME280;865;53.672;10.250;2023-11-19T08:11:18;98984.91;;;9.67;100.00
1736;BME280;865;53.672;10.250;2023-11-19T08:13:46;98996.06;;;9.69;100.00
1736;BME280;865;53.672;10.250;2023-11-19T08:16:13;99003.81;;;9.71;100.00
1736;BME280;865;53.672;10.250;2023-11-19T08:18:43;99008.91;;;9.74;100.00
1736;BME280;865;53.672;10.250;2023-11-19T08:21:10;99031.53;;;9.72;100.00
1736;BME280;865;53.672;10.250;2023-11-19T08:23:37;99029.63;;;9.75;100.00
1736;BME280;865;53.672;10.250;2023-11-19T08:26:05;99039.31;;;9.73;100.00
1736;BME280;865;53.672;10.250;2023-11-19T08:28:32;99033.97;;;9.76;100.00
1736;BME280;865;53.672;10.250;2023-11-19T08:31:00;99056.47;;;9.77;100.00
1736;BME280;865;53.672;10.250;2023-11-19T08:33:27;99065.91;;;9.80;100.00
1736;BME280;865;53.672;10.250;2023-11-19T08:35:53;99071.16;;;9.78;100.00
1736;BME280;865;53.672;10.250;2023-11-19T08:38:20;99093.50;;;9.84;100.00
1736;BME280;865;53.672;10.250;2023-11-19T08:40:49;99083.75;;;9.89;100.00
1736;BME280;865;53.672;10.250;2023-11-19T08:43:16;99104.78;;;9.85;100.00
1736;BME280;865;53.672;10.250;2023-11-19T08:45:43;99111.88;;;9.81;100.00
1736;BME280;865;53.672;10.250;2023-11-19T08:48:10;99115.69;;;9.93;100.00
1736;BME280;865;53.672;10.250;2023-11-19T08:50:36;99126.25;;;9.90;100.00
1736;BME280;865;53.672;10.250;2023-11-19T08:53:03;99127.63;;;9.98;100.00
1736;BME280;865;53.672;10.250;2023-11-19T08:55:33;99139.75;;;9.99;100.00
1736;BME280;865;53.672;10.250;2023-11-19T08:57:59;99148.78;;;9.91;100.00
1736;BME280;865;53.672;10.250;2023-11-19T09:00:26;99148.44;;;9.98;100.00
1736;BME280;865;53.672;10.250;2023-11-19T09:02:52;99162.00;;;10.07;100.00
1736;BME280;865;53.672;10.250;2023-11-19T09:05:19;99186.25;;;10.09;100.00
1736;BME280;865;53.672;10.250;2023-11-19T09:07:46;99204.34;;;10.12;100.00
1736;BME280;865;53.672;10.250;2023-11-19T09:10:12;99217.25;;;10.15;100.00
1736;BME280;865;53.672;10.250;2023-11-19T09:12:38;99231.03;;;10.17;100.00
1736;BME280;865;53.672;10.250;2023-11-19T09:15:05;99253.50;;;10.19;100.00
1736;BME280;865;53.672;10.250;2023-11-19T09:17:32;99277.03;;;10.18;100.00
1736;BME280;865;53.672;10.250;2023-11-19T09:19:59;99282.31;;;10.16;100.00
1736;BME280;865;53.672;10.250;2023-11-19T09:22:26;99314.28;;;10.20;100.00
1736;BME280;865;53.672;10.250;2023-11-19T09:24:52;99325.47;;;10.23;100.00
1736;BME280;865;53.672;10.250;2023-11-19T09:27:19;99348.75;;;10.28;100.00
1736;BME280;865;53.672;10.250;2023-11-19T09:29:47;99369.34;;;10.34;100.00
1736;BME280;865;53.672;10.250;2023-11-19T09:32:15;99382.50;;;10.31;100.00
1736;BME280;865;53.672;10.250;2023-11-19T09:34:41;99386.44;;;10.41;100.00
1736;BME280;865;53.672;10.250;2023-11-19T09:37:08;99402.72;;;10.46;100.00
1736;BME280;865;53.672;10.250;2023-11-19T09:39:37;99433.41;;;10.40;100.00
1736;BME280;865;53.672;10.250;2023-11-19T09:42:05;99441.06;;;10.44;100.00
1736;BME280;865;53.672;10.250;2023-11-19T09:44:32;99457.59;;;10.43;100.00
1736;BME280;865;53.672;10.250;2023-11-19T09:46:59;99463.06;;;10.37;100.00
1736;BME280;865;53.672;10.250;2023-11-19T09:49:26;99487.19;;;10.42;100.00
1736;BME280;865;53.672;10.250;2023-11-19T09:51:56;99506.25;;;10.44;100.00
1736;BME280;865;53.672;10.250;2023-11-19T09:54:23;99513.31;;;10.41;100.00
1736;BME280;865;53.672;10.250;2023-11-19T09:56:49;99533.38;;;10.39;100.00
1736;BME280;865;53.672;10.250;2023-11-19T09:59:17;99549.69;;;10.44;100.00
1736;BME280;865;53.672;10.250;2023-11-19T10:01:45;99564.34;;;10.46;100.00
1736;BME280;865;53.672;10.250;2023-11-19T10:04:15;99559.72;;;10.55;100.00
1736;BME280;865;53.672;10.250;2023-11-19T10:06:42;99570.09;;;10.56;100.00
1736;BME280;865;53.672;10.250;2023-11-19T10:09:09;99565.13;;;10.50;100.00
1736;BME280;865;53.672;10.250;2023-11-19T10:11:38;99582.13;;;10.59;100.00
1736;BME280;865;53.672;10.250;2023-11-19T10:14:05;99593.69;;;10.75;100.00
1736;BME280;865;53.672;10.250;2023-11-19T10:16:34;99603.16;;;10.78;100.00
1736;BME280;865;53.672;10.250;2023-11-19T10:19:01;99622.94;;;10.83;100.00
1736;BME280;865;53.672;10.250;2023-11-19T10:21:28;99635.88;;;10.86;100.00
1736;BME280;865;53.672;10.250;2023-11-19T10:23:55;99649.91;;;10.82;100.00
1736;BME280;865;53.672;10.250;2023-11-19T10:26:23;99658.22;;;10.70;100.00
1736;BME280;865;53.672;10.250;2023-11-19T10:28:50;99671.38;;;10.67;100.00
1736;BME280;865;53.672;10.250;2023-11-19T10:31:18;99684.59;;;10.62;100.00
1736;BME280;865;53.672;10.250;2023-11-19T10:33:45;99695.47;;;10.73;100.00
1736;BME280;865;53.672;10.250;2023-11-19T10:36:12;99707.44;;;10.79;100.00
1736;BME280;865;53.672;10.250;2023-11-19T10:38:40;99713.34;;;10.84;100.00
1736;BME280;865;53.672;10.250;2023-11-19T10:41:07;99726.25;;;10.87;100.00
1736;BME280;865;53.672;10.250;2023-11-19T10:43:43;99736.78;;;10.86;100.00
1736;BME280;865;53.672;10.250;2023-11-19T10:46:14;99739.50;;;10.83;100.00
1736;BME280;865;53.672;10.250;2023-11-19T10:48:41;99743.78;;;10.84;100.00
1736;BME280;865;53.672;10.250;2023-11-19T10:51:08;99738.50;;;10.85;100.00
1736;BME280;865;53.672;10.250;2023-11-19T10:53:38;99745.66;;;10.80;100.00
1736;BME280;865;53.672;10.250;2023-11-19T10:56:09;99747.44;;;10.80;100.00
1736;BME280;865;53.672;10.250;2023-11-19T10:58:37;99750.59;;;10.88;100.00
1736;BME280;865;53.672;10.250;2023-11-19T11:01:14;99756.63;;;10.90;100.00
1736;BME280;865;53.672;10.250;2023-11-19T11:03:42;99763.81;;;10.83;100.00
1736;BME280;865;53.672;10.250;2023-11-19T11:06:13;99750.13;;;10.77;100.00
1736;BME280;865;53.672;10.250;2023-11-19T11:08:40;99751.72;;;10.81;100.00
1736;BME280;865;53.672;10.250;2023-11-19T11:11:07;99755.06;;;10.84;100.00
1736;BME280;865;53.672;10.250;2023-11-19T11:13:35;99743.19;;;10.77;100.00
1736;BME280;865;53.672;10.250;2023-11-19T11:16:04;99735.50;;;10.72;100.00
1736;BME280;865;53.672;10.250;2023-11-19T11:18:34;99736.13;;;10.79;100.00
1736;BME280;865;53.672;10.250;2023-11-19T11:21:04;99736.69;;;10.87;100.00
1736;BME280;865;53.672;10.250;2023-11-19T11:23:37;99749.25;;;10.78;100.00
1736;BME280;865;53.672;10.250;2023-11-19T11:26:48;99742.16;;;10.81;100.00
1736;BME280;865;53.672;10.250;2023-11-19T11:37:46;99761.81;;;10.66;100.00
1736;BME280;865;53.672;10.250;2023-11-19T11:40:15;99765.38;;;10.64;100.00
1736;BME280;865;53.672;10.250;2023-11-19T11:42:42;99764.69;;;10.59;100.00
1736;BME280;865;53.672;10.250;2023-11-19T11:45:10;99758.25;;;10.69;100.00
1736;BME280;865;53.672;10.250;2023-11-19T11:50:17;99758.94;;;10.98;100.00
1736;BME280;865;53.672;10.250;2023-11-19T11:55:36;99762.53;;;10.95;100.00
1736;BME280;865;53.672;10.250;2023-11-19T11:58:05;99768.28;;;11.03;100.00
1736;BME280;865;53.672;10.250;2023-11-19T12:00:32;99772.28;;;10.90;100.00
1736;BME280;865;53.672;10.250;2023-11-19T12:03:05;99767.97;;;10.89;100.00
1736;BME280;865;53.672;10.250;2023-11-19T12:05:34;99762.06;;;10.84;100.00
1736;BME280;865;53.672;10.250;2023-11-19T12:08:06;99765.13;;;10.71;100.00
1736;BME280;865;53.672;10.250;2023-11-19T12:10:42;99766.13;;;10.67;100.00
1736;BME280;865;53.672;10.250;2023-11-19T12:13:09;99757.16;;;10.51;100.00
1736;BME280;865;53.672;10.250;2023-11-19T12:18:23;99739.69;;;10.28;100.00
1736;BME280;865;53.672;10.250;2023-11-19T12:20:51;99732.78;;;10.25;100.00
1736;BME280;865;53.672;10.250;2023-11-19T12:23:17;99710.88;;;10.33;100.00
1736;BME280;865;53.672;10.250;2023-11-19T12:25:44;99700.50;;;10.31;100.00
1736;BME280;865;53.672;10.250;2023-11-19T12:28:12;99702.28;;;10.29;100.00
1736;BME280;865;53.672;10.250;2023-11-19T12:30:40;99691.09;;;10.27;100.00
1736;BME280;865;53.672;10.250;2023-11-19T12:33:10;99672.84;;;10.25;100.00
1736;BME280;865;53.672;10.250;2023-11-19T12:35:44;99652.47;;;10.38;100.00
1736;BME280;865;53.672;10.250;2023-11-19T12:38:21;99642.56;;;10.46;100.00
1736;BME280;865;53.672;10.250;2023-11-19T12:41:02;99637.31;;;10.48;100.00
1736;BME280;865;53.672;10.250;2023-11-19T12:43:29;99632.22;;;10.45;100.00
1736;BME280;865;53.672;10.250;2023-11-19T12:45:56;99626.81;;;10.49;100.00
1736;BME280;865;53.672;10.250;2023-11-19T12:48:22;99630.31;;;10.50;100.00
1736;BME280;865;53.672;10.250;2023-11-19T12:50:57;99623.13;;;10.55;100.00
1736;BME280;865;53.672;10.250;2023-11-19T12:53:25;99631.56;;;10.62;100.00
1736;BME280;865;53.672;10.250;2023-11-19T12:55:53;99625.75;;;10.55;100.00
1736;BME280;865;53.672;10.250;2023-11-19T12:58:36;99638.28;;;10.45;100.00
1736;BME280;865;53.672;10.250;2023-11-19T13:01:07;99650.50;;;10.43;100.00
1736;BME280;865;53.672;10.250;2023-11-19T13:03:36;99660.28;;;10.38;100.00
1736;BME280;865;53.672;10.250;2023-11-19T13:06:07;99666.22;;;10.42;100.00
1736;BME280;865;53.672;10.250;2023-11-19T13:08:45;99661.34;;;10.33;100.00
1736;BME280;865;53.672;10.250;2023-11-19T13:11:33;99672.72;;;10.30;100.00
1736;BME280;865;53.672;10.250;2023-11-19T13:14:01;99673.53;;;10.32;100.00
1736;BME280;865;53.672;10.250;2023-11-19T13:16:31;99689.19;;;10.32;100.00
1736;BME280;865;53.672;10.250;2023-11-19T13:18:58;99690.88;;;10.33;100.00
1736;BME280;865;53.672;10.250;2023-11-19T13:21:26;99692.56;;;10.34;100.00
1736;BME280;865;53.672;10.250;2023-11-19T13:23:53;99694.16;;;10.38;100.00
1736;BME280;865;53.672;10.250;2023-11-19T13:26:19;99679.41;;;10.37;100.00
1736;BME280;865;53.672;10.250;2023-11-19T13:28:47;99678.56;;;10.37;100.00
1736;BME280;865;53.672;10.250;2023-11-19T13:31:14;99686.56;;;10.32;100.00
1736;BME280;865;53.672;10.250;2023-11-19T13:33:41;99682.34;;;10.28;100.00
1736;BME280;865;53.672;10.250;2023-11-19T13:36:08;99682.44;;;10.26;100.00
1736;BME280;865;53.672;10.250;2023-11-19T13:38:36;99675.13;;;10.36;100.00